Werte bis 5 Uhr SommerzeitDiagramme Kirchhain: Tagesdaten MonatsdatenCSV-Datei: Kirchhain20.csv

Wetterdaten 2020 Station: Kirchhain
Temperaturen in °C relative Nieder- Global- Wind Wind Wind- Sonnen-
Datum Boden Boden Luft Luft Luft Luft Feuchte schlag strahlung max richtung schein
20 cm 5 cm 20 cm 2 m 2 m max 2 m min % mm W/m2*d m/s m/s ° h

07.08.2020 18,9 19,3 15,2 16,1 17,9 14,2 74 0,0 0 0,0 1,3 --- ---
06.08.2020 18,3 19,5 21,2 21,4 32,6 10,5 53 0,0 6510 0,4 3,9 --- 10,8
05.08.2020 18,0 18,6 18,8 19,0 29,6 8,5 58 0,0 6534 0,5 4,8 --- 11,0
04.08.2020 18,1 18,1 17,3 17,5 24,5 10,1 59 0,0 5155 0,5 5,1 --- 9,6
03.08.2020 18,5 18,8 17,9 18,1 23,4 12,9 65 0,0 3589 0,6 4,9 --- 10,1
02.08.2020 18,7 19,9 21,6 21,6 26,7 18,5 67 0,2 4053 0,5 5,1 --- 8,6
01.08.2020 18,6 19,6 22,5 23,1 31,5 14,3 62 0,0 3943 0,4 4,8 --- 10,3
31.07.2020 18,3 19,8 22,8 23,1 34,0 11,8 51 0,0 6835 0,5 4,0 --- 11,6
30.07.2020 18,0 18,7 19,2 19,5 29,6 9,2 57 0,0 6676 0,4 3,6 --- 11,4
29.07.2020 18,1 18,3 17,6 17,8 25,8 9,1 60 0,0 6018 0,5 5,1 --- 11,6
28.07.2020 18,3 19,4 21,5 21,7 28,2 14,6 57 0,0 5661 0,8 6,6 --- 11,6
27.07.2020 18,0 18,7 19,9 20,3 29,7 11,0 64 0,0 4527 0,5 5,6 --- 11,6
26.07.2020 18,0 18,9 20,4 20,7 26,5 16,6 65 5,5 4939 0,8 5,7 --- 11,0
25.07.2020 17,9 19,0 21,1 21,4 27,9 15,0 60 0,0 3902 0,5 4,3 --- 10,4
24.07.2020 17,7 18,6 21,0 21,2 28,0 14,3 52 0,0 5455 0,6 5,8 --- 11,6
23.07.2020 17,4 18,2 18,2 18,4 27,2 9,2 55 0,0 7158 0,5 3,8 --- 11,5
22.07.2020 17,3 17,7 16,6 16,9 25,8 7,3 58 0,0 7133 0,6 7,8 --- 11,6
21.07.2020 17,5 17,7 16,5 16,8 25,5 8,2 61 0,0 6654 0,6 5,6 --- 11,6
20.07.2020 17,7 18,5 18,1 18,4 24,9 12,8 71 0,0 4065 0,5 4,8 --- 9,2
19.07.2020 17,5 18,6 20,0 20,5 29,9 10,8 62 0,0 5762 0,4 3,9 --- 11,1
18.07.2020 17,3 18,4 19,4 19,8 27,7 12,9 64 0,0 5900 0,4 4,1 --- 11,5
17.07.2020 17,0 17,6 16,9 16,9 23,6 11,7 77 0,0 4488 0,4 3,6 --- 11,0
16.07.2020 17,1 17,1 14,5 14,5 17,9 11,5 86 3,4 1995 0,3 2,6 --- 6,9
15.07.2020 17,2 17,8 17,0 17,0 22,5 13,0 74 0,3 4574 0,6 5,2 --- 10,0
14.07.2020 17,1 17,7 17,9 18,3 28,3 9,7 65 1,1 4755 0,5 4,8 --- 7,6
13.07.2020 16,9 17,4 17,3 17,7 26,9 7,5 59 0,0 7191 0,4 3,9 --- 12,0
12.07.2020 16,9 17,0 15,6 15,8 23,7 7,8 65 0,0 6035 0,5 4,2 --- 11,6
11.07.2020 17,2 17,2 15,0 15,2 21,9 9,2 67 0,0 4757 0,6 3,5 --- 11,9
10.07.2020 17,5 18,0 18,2 18,5 23,7 13,1 73 0,0 3040 0,8 6,7 --- 11,1
09.07.2020 17,1 18,0 19,9 20,0 28,3 14,7 77 1,1 4631 0,9 6,3 --- 9,8
08.07.2020 17,0 17,0 14,7 14,7 16,2 13,0 86 1,4 1991 0,5 3,6 --- 6,2
07.07.2020 17,0 16,7 14,8 15,1 22,4 7,0 67 0,0 5564 0,6 4,1 --- 10,8
06.07.2020 17,7 17,7 15,9 16,0 21,2 11,4 65 2,7 3921 1,3 9,8 --- 10,6
05.07.2020 17,8 19,0 21,8 21,9 27,7 18,1 69 0,0 4044 1,5 10,7 --- 8,4
04.07.2020 17,6 18,0 18,8 19,1 25,0 11,6 65 0,0 4953 1,1 7,4 --- 11,8
03.07.2020 17,7 18,3 17,7 17,9 24,6 12,8 71 0,7 5255 0,7 4,6 --- 12,0
02.07.2020 17,6 18,6 18,9 19,0 26,2 14,5 74 4,5 6206 0,9 8,7 --- 11,2
01.07.2020 17,4 18,3 20,4 20,5 26,7 15,8 69 0,8 3603 1,0 6,8 --- 11,7
30.06.2020 17,3 17,5 17,1 17,3 23,6 10,2 61 0,0 6126 1,2 8,1 --- 11,6
29.06.2020 17,6 18,0 17,0 17,1 23,9 11,6 70 1,5 5400 0,7 6,5 --- 11,7
28.06.2020 18,2 19,1 19,7 19,8 22,5 14,2 71 0,9 2873 0,8 6,8 --- 9,8
27.06.2020 18,1 19,8 22,6 22,7 28,5 17,5 69 0,0 5124 0,7 6,7 --- 11,5
26.06.2020 17,7 19,2 21,7 21,8 29,9 12,5 62 0,0 7546 0,6 6,0 --- 12,3
25.06.2020 17,7 18,8 20,7 21,2 27,3 13,6 65 0,3 6002 1,0 5,9 --- 12,1
24.06.2020 17,4 18,6 19,4 20,0 27,0 11,2 60 0,0 7427 0,9 6,2 --- 11,9
23.06.2020 17,1 18,1 18,2 19,0 27,0 10,1 64 0,0 6708 0,5 4,6 --- 12,2
22.06.2020 17,0 18,3 18,4 18,9 24,5 13,8 71 0,0 5270 0,5 4,8 --- 12,3
21.06.2020 16,5 17,4 17,5 18,4 27,1 9,4 68 0,0 6921 0,4 3,4 --- 12,1
20.06.2020 16,5 17,5 17,3 17,8 23,2 13,2 74 0,2 4628 0,4 3,6 --- 12,1
19.06.2020 16,4 17,3 17,1 17,4 25,3 11,8 78 6,8 5019 0,5 4,1 --- 10,1
18.06.2020 16,3 17,7 17,3 17,9 21,2 13,8 82 0,7 1271 0,4 3,4 --- 4,2
17.06.2020 16,0 16,9 16,4 16,4 24,4 12,1 91 26,0 3219 0,4 8,4 --- 8,0
16.06.2020 16,0 16,9 16,3 16,5 18,6 13,6 94 0,6 1455 0,3 2,1 --- 4,5
15.06.2020 16,2 17,2 16,2 16,3 18,0 15,0 95 12,9 1589 0,2 2,6 --- 5,4
14.06.2020 16,3 18,0 18,8 18,9 22,1 17,0 87 11,5 2083 0,5 3,5 --- 7,3
13.06.2020 15,8 18,2 21,9 22,2 29,9 14,9 69 0,1 7079 0,6 4,3 --- 12,0
12.06.2020 14,9 16,6 19,8 19,8 29,2 9,9 68 0,0 7188 0,9 6,9 --- 10,8
11.06.2020 14,4 15,4 15,6 15,6 19,8 12,8 83 3,8 3709 0,7 4,5 --- 11,1
10.06.2020 14,1 14,9 14,7 14,7 19,2 12,3 85 1,2 2345 0,4 4,8 --- 7,6
09.06.2020 14,0 14,4 13,8 14,0 20,6 6,8 78 0,3 3641 0,5 6,5 --- 9,8
08.06.2020 13,8 14,2 13,2 13,4 21,8 6,7 74 0,5 4822 0,4 3,7 --- 9,9
07.06.2020 13,7 13,8 12,8 13,1 19,2 6,4 68 0,0 4438 0,6 7,0 --- 10,8
06.06.2020 13,7 13,7 11,3 11,5 17,9 5,5 78 1,7 5119 0,8 6,7 --- 10,8
05.06.2020 14,2 14,1 10,8 10,9 14,2 7,5 84 7,7 2673 0,9 6,7 --- 9,2
04.06.2020 14,7 15,1 13,3 13,4 16,9 10,2 90 5,3 1403 0,4 4,8 --- 4,2
03.06.2020 15,0 16,4 17,5 17,7 27,5 10,9 65 0,2 4459 0,4 5,9 --- 9,5
02.06.2020 14,7 16,4 18,6 18,8 28,4 7,8 54 0,0 7176 0,5 5,5 --- 11,4
01.06.2020 14,4 15,6 17,0 17,1 26,1 6,4 56 0,0 7600 0,9 6,5 --- 12,0
31.05.2020 14,2 15,2 15,1 15,1 21,0 8,5 55 0,0 7108 1,0 6,8 --- 12,0
30.05.2020 14,1 14,8 14,6 14,7 21,3 5,8 52 0,0 6189 1,2 8,0 --- 12,2
29.05.2020 14,2 15,0 14,5 14,5 22,0 4,8 52 0,0 7605 1,0 7,0 --- 12,0
28.05.2020 14,2 15,5 16,1 16,0 21,7 10,0 49 0,0 7789 1,2 6,9 --- 12,2
27.05.2020 13,7 14,9 15,3 15,5 24,5 5,5 61 0,0 7008 0,4 4,5 --- 11,3
26.05.2020 13,5 14,3 13,4 13,4 20,6 5,0 67 0,0 6719 0,7 4,6 --- 11,6
25.05.2020 13,2 14,1 14,9 15,0 21,2 10,7 69 0,7 5343 0,8 6,0 --- 11,5
24.05.2020 13,3 13,2 11,9 12,3 17,4 6,4 76 0,1 3090 0,8 7,4 --- 7,5
23.05.2020 13,9 14,7 13,4 13,5 17,0 10,3 78 2,2 3000 0,8 6,7 --- 9,5
22.05.2020 13,8 15,3 17,3 17,6 24,4 9,8 79 16,6 3017 0,4 5,8 --- 10,6
21.05.2020 13,3 15,0 16,8 17,0 26,8 6,8 66 0,0 7288 0,4 4,3 --- 11,7
20.05.2020 13,1 15,0 17,3 17,3 21,9 11,5 66 0,0 4052 0,7 5,3 --- 11,6
19.05.2020 12,5 14,0 16,3 16,5 26,2 6,4 63 0,0 5669 0,5 4,7 --- 11,2
18.05.2020 12,0 13,2 14,9 15,2 25,3 4,0 61 0,0 6991 0,6 6,8 --- 11,6
17.05.2020 11,7 12,7 12,7 12,9 20,7 4,6 58 0,0 6834 0,5 3,4 --- 11,4
16.05.2020 11,2 11,8 10,4 10,7 20,8 -0,1 61 0,0 6809 0,4 3,5 --- 11,2
15.05.2020 11,0 11,1 9,4 9,5 17,8 0,2 56 0,0 7001 0,8 5,2 --- 11,6
14.05.2020 11,1 10,9 8,4 8,5 14,9 1,9 65 0,0 4722 0,9 7,7 --- 11,6
13.05.2020 11,1 11,0 8,6 8,6 17,6 3,0 61 0,0 4612 0,7 5,0 --- 10,1
12.05.2020 11,3 10,4 6,3 6,6 13,6 -1,0 62 0,0 5064 0,5 3,9 --- 10,5
11.05.2020 12,3 11,8 6,5 6,7 14,7 3,0 76 2,6 1637 1,3 6,9 --- 4,3
10.05.2020 12,5 13,8 14,6 14,6 24,8 9,2 83 0,0 3259 0,3 3,5 --- 6,8
09.05.2020 12,3 13,7 15,2 15,4 24,2 7,5 60 0,0 4307 0,5 4,2 --- 11,8
08.05.2020 11,8 13,3 15,2 15,4 25,1 6,2 52 0,0 6215 0,5 3,8 --- 11,5
07.05.2020 11,2 11,9 11,9 12,2 23,0 1,4 59 0,0 6835 0,4 3,5 --- 10,6
06.05.2020 11,1 11,2 9,4 9,5 19,1 -0,4 58 0,0 6925 0,6 5,6 --- 10,7
05.05.2020 11,1 11,0 8,5 8,6 15,5 1,6 61 0,0 7022 0,7 5,1 --- 11,0
04.05.2020 11,3 11,8 10,2 10,3 14,1 4,3 79 0,0 2211 0,6 5,1 --- 7,3
03.05.2020 11,1 11,2 9,9 10,1 16,8 2,0 75 0,0 4263 0,4 3,7 --- 10,2
02.05.2020 11,2 11,2 8,8 8,8 13,8 6,9 85 0,4 2717 0,8 11,3 --- 7,1
01.05.2020 11,3 11,6 9,8 9,9 15,6 6,5 83 0,9 3838 1,0 6,6 --- 9,5
30.04.2020 11,4 12,2 12,3 12,4 17,4 8,1 79 7,1 3994 1,5 9,5 --- 9,1
29.04.2020 11,1 11,9 12,9 13,2 19,5 7,8 75 0,0 4997 0,9 6,8 --- 10,2
28.04.2020 11,2 11,6 10,6 10,8 17,5 4,7 84 1,6 1778 0,4 5,9 --- 6,6
27.04.2020 11,0 12,1 12,7 12,9 23,9 2,2 59 0,0 5857 0,5 5,4 --- 9,5
26.04.2020 10,8 11,6 10,8 11,1 21,2 0,8 59 0,0 6376 0,4 3,5 --- 10,1
25.04.2020 10,9 11,8 10,9 10,9 17,6 5,3 58 0,0 6188 1,0 6,1 --- 10,8
24.04.2020 10,6 11,5 13,1 13,4 23,8 3,3 57 0,0 5328 0,6 5,4 --- 10,7
23.04.2020 10,5 11,6 13,3 13,6 23,6 3,0 50 0,0 6311 0,7 5,3 --- 10,2
22.04.2020 10,4 11,4 13,9 14,2 21,3 6,1 40 0,0 6389 1,9 9,1 --- 10,2
21.04.2020 10,3 11,0 13,2 13,2 19,3 6,9 39 0,0 6298 2,8 11,6 --- 10,1
20.04.2020 10,3 10,7 11,6 11,7 18,2 5,5 39 0,0 6316 2,5 12,3 --- 10,0
19.04.2020 10,5 11,5 12,4 12,5 17,5 9,0 64 0,1 3568 1,4 8,1 --- 9,5
18.04.2020 10,1 11,5 14,0 14,3 24,2 5,2 69 1,3 3963 0,5 4,3 --- 10,1
17.04.2020 9,8 11,1 13,7 14,0 23,7 4,2 58 0,0 5495 0,7 5,8 --- 9,4
16.04.2020 9,2 10,0 11,7 12,2 25,0 0,3 56 0,0 5578 0,5 5,1 --- 9,2
15.04.2020 8,8 8,9 7,2 7,4 18,9 -1,6 60 0,0 5489 0,4 3,3 --- 10,2
14.04.2020 9,0 8,7 5,1 5,2 12,1 -0,9 57 0,0 4328 0,7 4,9 --- 9,6
13.04.2020 9,5 9,8 8,0 8,1 11,4 3,4 59 0,0 3953 1,2 7,8 --- 10,0
12.04.2020 9,4 10,5 13,0 13,5 24,5 4,4 53 0,0 5080 0,6 7,2 --- 8,7
11.04.2020 9,2 10,0 10,9 11,3 21,8 1,1 48 0,0 5580 0,5 3,3 --- 9,0
10.04.2020 9,1 10,2 12,3 12,7 21,9 3,5 58 0,0 5430 0,6 5,4 --- 8,6
09.04.2020 8,9 10,2 12,6 13,1 24,0 4,2 63 0,0 3916 0,6 5,2 --- 8,1
08.04.2020 8,5 10,1 13,4 14,1 24,4 4,8 62 0,0 5136 0,4 3,0 --- 8,8
07.04.2020 8,0 9,5 12,9 13,2 22,5 3,3 63 0,0 5143 0,8 5,7 --- 9,6
06.04.2020 7,4 8,1 10,7 11,3 23,8 -0,1 57 0,0 5101 0,6 5,5 --- 8,6
05.04.2020 7,1 7,6 9,1 9,7 20,0 -0,8 58 0,0 5118 0,8 9,5 --- 8,5
04.04.2020 6,7 7,0 6,4 6,6 15,2 -0,9 67 0,0 5010 0,6 4,6 --- 8,4
03.04.2020 6,6 6,6 6,8 7,1 12,1 1,5 69 0,0 1775 0,9 5,8 --- 6,8
02.04.2020 6,4 6,1 4,5 4,8 14,7 -3,6 63 0,0 4922 0,6 6,3 --- 8,3
01.04.2020 6,4 5,9 2,7 3,0 12,5 -5,5 58 0,0 4913 0,4 3,4 --- 8,3
31.03.2020 6,6 6,5 3,8 3,9 9,2 -1,8 60 0,0 4879 1,1 6,7 --- 8,5
30.03.2020 6,4 5,7 2,7 2,8 10,1 -4,2 51 0,0 4360 0,7 4,5 --- 7,2
29.03.2020 6,9 6,6 3,8 3,8 8,0 0,8 68 0,2 2694 1,5 8,8 --- 7,5
28.03.2020 6,7 7,3 9,0 9,4 17,0 1,2 56 0,0 4468 1,0 8,7 --- 8,1
27.03.2020 6,3 6,6 9,2 9,6 16,9 0,8 49 0,0 4288 1,5 7,9 --- 7,9
26.03.2020 6,0 5,5 5,0 5,3 11,0 -1,1 45 0,0 4327 1,8 8,5 --- 7,7
25.03.2020 6,2 5,2 2,6 3,0 11,0 -5,7 46 0,0 4620 1,4 7,7 --- 8,0
24.03.2020 6,5 5,5 2,4 2,9 10,9 -4,9 45 0,0 4574 0,9 7,5 --- 7,9
23.03.2020 6,8 5,8 2,5 2,7 9,4 -3,0 41 0,0 4490 1,3 6,6 --- 7,9
22.03.2020 7,4 6,4 3,0 3,1 7,5 -0,3 48 0,0 4468 2,2 10,1 --- 7,8
21.03.2020 8,0 7,7 5,1 5,2 9,0 2,0 64 0,1 3070 2,3 10,9 --- 8,2
20.03.2020 8,2 8,7 8,5 8,7 12,4 5,6 83 0,0 1224 1,0 6,1 --- 4,6
19.03.2020 7,9 8,6 10,0 10,3 19,0 3,6 75 0,0 3535 0,4 3,1 --- 6,5
18.03.2020 7,7 7,9 8,0 8,4 18,1 0,4 79 0,0 3478 0,6 5,9 --- 6,7
17.03.2020 7,6 8,4 9,6 10,0 17,5 4,4 74 0,0 3755 0,5 4,0 --- 8,4
16.03.2020 7,3 7,4 7,5 7,9 17,8 -0,5 78 0,0 3388 0,4 3,3 --- 7,5
15.03.2020 7,3 7,5 8,0 8,3 14,8 3,1 66 0,0 3582 0,8 6,7 --- 8,0
14.03.2020 7,2 7,2 5,0 5,1 11,9 0,8 85 0,1 3203 0,4 2,9 --- 7,3
13.03.2020 7,4 7,2 6,6 6,8 11,1 3,8 69 1,3 2823 2,0 11,0 --- 7,0
12.03.2020 7,6 8,4 10,4 10,7 13,1 6,2 64 1,3 2698 2,1 16,9 --- 7,7
11.03.2020 6,9 8,2 11,5 11,7 14,0 8,8 95 15,2 1207 1,3 7,3 --- 4,4
10.03.2020 6,4 6,4 7,2 7,5 11,6 4,4 94 6,8 634 1,8 6,9 --- 0,3
09.03.2020 6,3 6,6 7,0 7,3 11,8 2,8 80 1,0 2123 0,9 5,5 --- 6,6
08.03.2020 5,9 5,9 6,8 7,1 10,4 1,9 77 0,0 1789 1,1 7,0 --- 5,8
07.03.2020 5,8 5,5 4,6 4,9 8,8 0,5 76 0,4 1601 0,9 5,5 --- 5,7
06.03.2020 5,9 5,7 5,5 5,7 7,5 4,8 88 4,5 603 1,2 6,6 --- 1,0
05.03.2020 5,7 5,2 4,1 4,3 8,3 0,3 91 7,7 855 0,7 5,9 --- 2,2
04.03.2020 5,9 5,0 2,6 3,0 10,5 -2,0 89 0,2 1323 0,6 5,2 --- 3,7
03.03.2020 6,2 6,0 4,3 4,6 9,3 -0,6 83 2,2 2100 0,7 5,4 --- 5,5
02.03.2020 6,1 6,1 6,4 6,6 11,4 0,7 79 1,4 2397 1,0 9,1 --- 6,3
01.03.2020 5,9 5,8 6,6 7,0 11,0 4,0 75 1,7 2200 1,5 10,5 --- 5,6
29.02.2020 5,7 5,7 7,1 7,5 13,4 2,5 81 2,7 1603 1,7 12,8 --- 4,7
28.02.2020 5,6 4,9 3,1 3,3 7,2 0,3 84 2,1 2075 1,2 7,2 --- 5,6
27.02.2020 5,8 5,1 2,2 2,4 5,1 0,8 91 5,7 810 1,1 5,1 --- 2,5
26.02.2020 6,1 5,5 2,8 3,0 6,0 1,5 89 2,1 1191 1,4 8,3 --- 4,9
25.02.2020 6,2 6,5 7,7 7,9 11,7 2,6 79 7,0 2304 1,6 9,1 --- 6,1
24.02.2020 6,1 5,9 5,0 5,4 10,1 0,4 88 3,0 605 1,1 8,5 --- 0,5
23.02.2020 6,0 6,6 9,0 9,3 12,4 6,0 86 6,4 599 2,4 13,0 --- 0,9
22.02.2020 5,7 5,4 6,5 6,8 10,7 1,7 76 0,2 1124 1,7 8,1 --- 3,6
21.02.2020 5,7 5,5 5,3 5,6 8,8 2,7 74 1,5 1471 1,7 8,6 --- 4,8
20.02.2020 5,6 5,4 5,9 6,1 9,8 2,1 84 2,8 1073 1,5 10,2 --- 4,1
19.02.2020 5,8 5,4 4,5 4,9 7,8 1,3 77 4,5 1193 1,4 7,4 --- 4,1
18.02.2020 5,9 5,9 6,0 6,3 8,9 4,5 80 0,8 1598 1,7 9,6 --- 5,2
17.02.2020 5,9 6,4 7,4 7,7 10,0 5,0 82 3,5 1020 1,6 7,3 --- 4,4
16.02.2020 5,3 6,1 11,7 12,1 15,6 7,6 66 3,2 1200 2,3 11,4 --- 3,2
15.02.2020 4,8 4,8 6,0 6,5 11,2 1,1 84 0,1 1806 0,8 6,4 --- 6,0
14.02.2020 4,6 4,3 4,6 5,0 7,2 2,5 91 0,2 742 0,5 4,3 --- 2,1
13.02.2020 4,6 3,7 2,3 2,7 5,4 -1,4 93 3,4 403 0,8 7,7 --- 0,3
12.02.2020 4,9 4,0 2,9 3,4 7,5 0,1 76 1,0 1397 1,5 8,8 --- 4,0
11.02.2020 5,2 4,5 3,2 3,6 6,6 1,0 79 5,1 971 2,5 12,4 --- 2,6
10.02.2020 5,3 5,6 6,8 7,4 12,9 4,2 80 19,7 1016 3,0 16,7 --- 2,4
09.02.2020 4,7 4,7 7,5 7,9 12,2 2,3 77 0,2 1151 2,1 13,6 --- 3,5
08.02.2020 4,6 3,4 0,4 0,7 5,2 -4,1 92 0,2 857 0,2 2,1 --- 3,1
07.02.2020 4,9 4,3 2,4 2,7 7,2 -2,0 83 0,0 1689 0,4 3,5 --- 4,6
06.02.2020 5,1 3,9 0,8 1,1 4,8 -2,8 91 0,0 781 0,2 2,3 --- 1,9
05.02.2020 5,7 4,7 2,2 2,9 8,8 -1,7 74 0,0 1623 0,5 4,6 --- 4,5
04.02.2020 6,2 5,8 3,4 3,7 6,3 0,0 92 9,4 905 0,7 6,3 --- 2,9
03.02.2020 6,3 6,8 9,0 9,4 11,5 6,2 80 4,7 644 1,3 8,9 --- 1,4
02.02.2020 6,1 6,5 8,4 8,7 12,6 6,1 83 2,4 413 1,4 8,7 --- ---
01.02.2020 5,9 7,0 10,3 10,7 11,7 8,4 88 10,0 309 1,3 7,9 --- ---
31.01.2020 5,1 6,2 11,3 11,7 15,8 7,6 84 0,6 1203 1,5 6,8 --- 4,3
30.01.2020 4,5 4,3 5,8 6,1 8,5 2,8 85 0,3 926 1,5 7,3 --- 3,5
29.01.2020 4,4 3,8 2,7 3,0 5,6 1,1 89 1,1 598 1,1 6,5 --- 1,2
28.01.2020 4,5 4,4 4,3 4,6 6,5 1,7 87 9,4 802 1,8 9,8 --- 2,5
27.01.2020 4,1 4,0 4,6 4,8 6,7 2,4 98 8,6 279 1,0 5,6 --- ---
26.01.2020 3,8 3,1 0,9 1,0 2,5 -0,4 100 0,3 365 0,3 2,1 --- ---
25.01.2020 3,7 2,7 -0,6 -0,6 0,3 -1,7 98 0,0 262 0,6 3,2 --- ---
24.01.2020 3,8 2,6 -0,5 -0,4 0,1 -2,2 94 0,0 225 0,7 4,3 --- ---
23.01.2020 3,9 3,0 0,2 0,4 2,7 -3,5 95 0,0 380 0,2 2,0 --- ---
22.01.2020 4,0 2,3 -2,5 -2,4 0,7 -5,8 99 0,0 448 0,2 1,4 --- 0,2
21.01.2020 4,6 2,8 -3,3 -3,0 2,0 -5,5 97 0,0 1082 0,1 1,4 --- 3,7
20.01.2020 5,0 4,2 1,3 1,6 5,0 -3,0 91 0,2 674 0,3 2,6 --- 1,2
19.01.2020 5,1 4,2 1,7 2,0 5,0 -1,1 94 0,2 648 0,3 2,5 --- 2,3
18.01.2020 5,3 4,6 3,1 3,5 6,6 -0,2 91 0,7 627 0,7 6,4 --- 1,4
17.01.2020 5,6 4,6 2,6 3,2 7,9 -1,7 96 0,4 557 0,3 3,3 --- 1,3
16.01.2020 5,9 6,1 6,5 7,0 12,8 0,9 92 0,5 934 0,3 3,9 --- 3,4
15.01.2020 5,7 6,0 9,7 10,1 12,9 8,1 69 0,0 776 1,2 6,2 --- 2,6
14.01.2020 5,3 5,4 7,7 8,0 9,8 5,9 76 0,0 534 1,6 6,6 --- 1,0
13.01.2020 5,1 4,7 5,0 5,3 6,4 3,7 94 0,2 333 0,7 5,9 --- ---
12.01.2020 5,2 4,2 2,3 2,6 5,0 -1,2 93 0,0 371 1,0 5,3 --- ---
11.01.2020 5,6 5,1 3,0 3,5 6,3 0,2 90 0,0 599 0,5 4,2 --- 1,5
10.01.2020 5,7 6,3 7,6 7,9 10,0 4,6 92 2,4 519 0,9 5,5 --- 0,8
09.01.2020 5,1 5,7 8,6 8,9 10,8 6,3 99 17,1 225 0,9 6,4 --- ---
08.01.2020 4,6 4,3 4,8 5,0 6,4 4,0 97 2,1 143 0,4 3,5 --- ---
07.01.2020 4,5 3,9 2,6 2,9 5,8 0,0 97 0,0 334 0,7 3,8 --- 0,1
06.01.2020 4,4 4,1 3,0 3,2 6,2 0,7 94 0,0 635 0,6 3,9 --- 1,8
05.01.2020 4,2 3,8 3,0 3,3 4,9 0,3 99 0,3 213 0,2 1,9 --- ---
04.01.2020 4,0 3,6 3,9 4,3 6,0 -0,3 92 2,3 207 0,9 5,8 --- ---
03.01.2020 3,5 3,0 4,1 4,3 7,7 0,5 98 1,3 204 0,8 6,5 --- ---
02.01.2020 3,4 1,8 -2,4 -2,3 0,8 -6,3 99 0,0 154 0,2 2,8 --- ---
01.01.2020 3,6 2,1 -3,7 -3,6 0,0 -6,0 99 0,0 439 0,2 1,1 --- ---

Mittelwerte (Temperaturen, Strahlung, rel. Feuchte, Wind), Summe (Regen) für 2020
10,6 10,9 10,8 11,0 73 332 3.551 0,8

Landesbetrieb Landwirtschaft Hessen 2009

      Werte bis 5 Uhr SommerzeitCSV-Datei: Kirchhain20.csvDiagramm: Kirchhain